createdAt,value
2019-03-26T00:04:05.864Z,14.63
2019-03-26T00:09:10.491Z,13.07
2019-03-26T00:14:19.561Z,12.27
2019-03-26T00:19:27.863Z,14.70
2019-03-26T00:24:36.846Z,12.20
2019-03-26T00:29:49.551Z,15.23
2019-03-26T00:34:57.484Z,18.60
2019-03-26T00:40:05.915Z,11.53
2019-03-26T00:45:14.799Z,12.23
2019-03-26T00:50:23.176Z,18.67
2019-03-26T00:55:31.911Z,14.03
2019-03-26T01:00:47.117Z,12.57
2019-03-26T01:05:56.259Z,17.20
2019-03-26T01:11:05.702Z,10.70
2019-03-26T01:16:14.894Z,14.30
2019-03-26T01:21:25.091Z,15.87
2019-03-26T01:26:38.161Z,10.00
2019-03-26T01:31:49.563Z,16.77
2019-03-26T01:36:57.760Z,12.20
2019-03-26T01:42:06.623Z,16.23
2019-03-26T01:47:16.817Z,11.67
2019-03-26T01:52:26.056Z,14.83
2019-03-26T01:57:34.631Z,9.90
2019-03-26T02:02:47.856Z,9.83
2019-03-26T02:07:55.937Z,13.20
2019-03-26T02:13:07.335Z,11.50
2019-03-26T02:18:15.639Z,16.50
2019-03-26T02:23:23.514Z,17.40
2019-03-26T02:28:36.157Z,11.20
2019-03-26T02:33:43.850Z,12.20
2019-03-26T02:38:51.685Z,15.77
2019-03-26T02:43:59.993Z,15.27
2019-03-26T02:49:10.120Z,13.97
2019-03-26T02:54:18.170Z,16.03
2019-03-26T02:59:26.317Z,13.60
2019-03-26T03:04:34.219Z,17.10
2019-03-26T03:09:42.012Z,14.37
2019-03-26T03:14:50.777Z,14.00
2019-03-26T03:19:58.802Z,11.60
2019-03-26T03:25:07.844Z,15.80
2019-03-26T03:30:18.647Z,12.60
2019-03-26T03:35:26.307Z,12.07
2019-03-26T03:40:36.533Z,14.77
2019-03-26T03:45:47.468Z,12.47
2019-03-26T03:51:00.221Z,16.10
2019-03-26T03:56:09.401Z,13.40
2019-03-26T04:01:17.524Z,14.83
2019-03-26T04:06:25.516Z,13.50
2019-03-26T04:11:33.551Z,12.90
2019-03-26T04:16:42.279Z,12.00
2019-03-26T04:21:52.274Z,14.37
2019-03-26T04:27:00.021Z,16.30
2019-03-26T04:32:09.044Z,20.90
2019-03-26T04:37:17.054Z,20.67
2019-03-26T04:42:24.810Z,17.00
2019-03-26T04:47:32.935Z,15.80
2019-03-26T04:52:41.169Z,16.00
2019-03-26T04:57:49.369Z,17.37
2019-03-26T05:02:59.463Z,19.20
2019-03-26T05:08:10.772Z,14.60
2019-03-26T05:13:18.576Z,15.93
2019-03-26T05:18:26.749Z,18.50
2019-03-26T05:23:36.339Z,13.13
2019-03-26T05:28:44.118Z,13.20
2019-03-26T05:33:53.763Z,16.23
2019-03-26T05:39:01.893Z,13.97
2019-03-26T05:44:09.832Z,16.60
2019-03-26T05:49:18.302Z,11.20
2019-03-26T05:54:26.710Z,13.70
2019-03-26T05:59:35.130Z,15.13
2019-03-26T06:04:44.698Z,12.40
2019-03-26T06:09:55.242Z,15.30
2019-03-26T06:15:05.290Z,16.40
2019-03-26T06:20:15.234Z,15.23
2019-03-26T06:25:23.780Z,17.33
2019-03-26T06:30:31.463Z,14.20
2019-03-26T06:35:40.960Z,15.43
2019-03-26T06:40:51.329Z,13.93
2019-03-26T06:45:59.136Z,18.50
2019-03-26T06:51:09.343Z,21.00
2019-03-26T06:56:17.481Z,15.97
2019-03-26T07:01:25.727Z,20.30
2019-03-26T07:06:35.295Z,16.10
2019-03-26T07:11:43.009Z,14.90
2019-03-26T07:16:51.016Z,19.77
2019-03-26T07:22:00.192Z,24.27
2019-03-26T07:27:09.968Z,27.40
2019-03-26T07:32:17.796Z,28.40
2019-03-26T07:37:26.761Z,29.80
2019-03-26T07:42:36.095Z,35.70
2019-03-26T07:47:45.153Z,28.30
2019-03-26T07:52:54.679Z,25.30
2019-03-26T07:58:05.685Z,28.40
2019-03-26T08:03:16.210Z,35.53
2019-03-26T08:08:24.108Z,32.57
2019-03-26T08:13:32.035Z,35.27
2019-03-26T08:18:42.227Z,30.20
2019-03-26T08:23:51.656Z,34.70
2019-03-26T08:29:01.179Z,37.13
2019-03-26T08:34:22.909Z,32.47
2019-03-26T08:39:34.462Z,39.13
2019-03-26T08:44:42.273Z,33.27
2019-03-26T08:49:53.151Z,27.27
2019-03-26T08:55:04.259Z,30.97
2019-03-26T09:00:16.518Z,21.40
2019-03-26T09:05:26.785Z,28.40
2019-03-26T09:10:35.292Z,34.93
2019-03-26T09:15:43.203Z,27.63
2019-03-26T09:20:51.160Z,20.40
2019-03-26T09:26:00.348Z,20.20
2019-03-26T09:31:09.219Z,17.23
2019-03-26T09:36:18.281Z,13.37
2019-03-26T09:41:26.771Z,19.50
2019-03-26T09:46:36.926Z,13.50
2019-03-26T09:51:44.623Z,13.27
2019-03-26T09:56:56.370Z,11.73
2019-03-26T10:02:07.487Z,13.73
2019-03-26T10:07:21.410Z,13.83
2019-03-26T10:12:26.059Z,9.60
2019-03-26T10:17:34.277Z,10.73
2019-03-26T10:22:42.088Z,14.27
2019-03-26T10:27:52.577Z,9.20
2019-03-26T10:33:01.639Z,11.97
2019-03-26T10:38:16.075Z,8.83
2019-03-26T10:43:28.083Z,12.30
2019-03-26T10:48:36.582Z,12.60
2019-03-26T10:53:44.580Z,14.50
2019-03-26T10:58:55.501Z,10.07
2019-03-26T11:04:03.787Z,10.60
2019-03-26T11:09:22.983Z,9.07
2019-03-26T11:14:22.047Z,9.13
2019-03-26T11:19:29.967Z,12.17
2019-03-26T11:24:37.992Z,16.50
2019-03-26T11:29:46.631Z,5.07
2019-03-26T11:34:56.840Z,6.17
2019-03-26T11:40:05.491Z,9.67
2019-03-26T11:45:17.023Z,10.63
2019-03-26T11:50:25.368Z,6.60
2019-03-26T11:55:33.524Z,8.10
2019-03-26T12:00:49.151Z,4.73
2019-03-26T12:05:58.586Z,9.00
2019-03-26T12:11:10.527Z,12.80
2019-03-26T12:16:22.604Z,8.73
2019-03-26T12:21:31.437Z,9.47
2019-03-26T12:26:39.182Z,8.37
2019-03-26T12:31:47.276Z,6.60
2019-03-26T12:36:55.551Z,7.60
2019-03-26T12:42:05.748Z,8.30
2019-03-26T12:47:14.344Z,12.00
2019-03-26T12:52:22.217Z,5.83
2019-03-26T12:57:32.795Z,6.27
2019-03-26T13:02:43.550Z,11.70
2019-03-26T13:07:53.812Z,5.70
2019-03-26T13:13:04.863Z,4.50
2019-03-26T13:18:12.962Z,5.00
2019-03-26T13:23:20.880Z,8.77
2019-03-26T13:28:32.089Z,6.00
2019-03-26T13:33:40.984Z,8.83
2019-03-26T13:38:52.284Z,5.93
2019-03-26T13:44:01.308Z,3.80
2019-03-26T13:49:13.266Z,7.53
2019-03-26T13:54:21.582Z,6.10
2019-03-26T13:59:32.638Z,5.80
2019-03-26T14:20:22.874Z,9.33
2019-03-26T14:25:32.595Z,7.23
2019-03-26T14:30:51.933Z,4.80
2019-03-26T14:36:01.021Z,6.70
2019-03-26T14:41:10.080Z,6.73
2019-03-26T14:46:18.200Z,8.47
2019-03-26T14:51:27.303Z,6.67
2019-03-26T14:56:41.146Z,5.60
2019-03-26T15:01:56.103Z,6.70
2019-03-26T15:07:03.938Z,7.27
2019-03-26T15:12:12.240Z,7.80
2019-03-26T15:17:20.888Z,9.43
2019-03-26T15:22:29.067Z,7.07
2019-03-26T15:27:37.717Z,7.00
2019-03-26T15:32:48.646Z,7.07
2019-03-26T15:37:56.687Z,7.63
2019-03-26T15:43:07.377Z,4.10
2019-03-26T15:48:15.643Z,5.57
2019-03-26T15:53:26.033Z,7.80
2019-03-26T15:58:34.902Z,6.00
2019-03-26T16:03:42.878Z,5.63
2019-03-26T16:08:53.779Z,5.80
2019-03-26T16:14:04.465Z,9.00
2019-03-26T16:19:19.452Z,7.10
2019-03-26T16:24:28.111Z,9.50
2019-03-26T16:29:38.253Z,8.77
2019-03-26T16:34:47.457Z,8.07
2019-03-26T16:39:56.436Z,6.53
2019-03-26T16:45:07.069Z,10.33
2019-03-26T16:50:19.235Z,5.33
2019-03-26T16:55:27.027Z,4.63
2019-03-26T17:00:41.312Z,6.00
2019-03-26T17:05:49.345Z,6.37
2019-03-26T17:10:57.976Z,10.47
2019-03-26T17:16:06.792Z,5.63
2019-03-26T17:21:18.246Z,7.23
2019-03-26T17:26:26.156Z,11.77
2019-03-26T17:31:38.580Z,7.50
2019-03-26T17:36:48.103Z,9.47
2019-03-26T17:42:16.226Z,12.03
2019-03-26T17:47:14.387Z,6.53
2019-03-26T17:52:23.977Z,8.73
2019-03-26T17:57:36.408Z,19.40
2019-03-26T18:02:45.180Z,9.83
2019-03-26T18:07:56.241Z,9.37
2019-03-26T18:13:06.066Z,11.57
2019-03-26T18:18:17.920Z,10.70
2019-03-26T18:23:28.892Z,16.00
2019-03-26T18:28:38.474Z,9.50
2019-03-26T18:33:54.456Z,7.67
2019-03-26T18:39:07.096Z,8.90
2019-03-26T18:44:21.116Z,15.67
2019-03-26T18:49:41.464Z,10.33
2019-03-26T18:54:54.881Z,8.27
2019-03-26T19:00:05.083Z,12.60
2019-03-26T19:05:18.369Z,8.80
2019-03-26T19:10:40.424Z,7.00
2019-03-26T19:15:52.737Z,10.17
2019-03-26T19:21:09.258Z,10.87
2019-03-26T19:26:20.625Z,12.77
2019-03-26T19:31:30.861Z,15.93
2019-03-26T19:36:43.107Z,12.83
2019-03-26T19:41:55.007Z,12.30
2019-03-26T19:47:26.075Z,16.93
2019-03-26T19:52:36.094Z,11.20
2019-03-26T19:57:50.520Z,16.73
2019-03-26T20:03:02.380Z,12.37
2019-03-26T20:08:16.411Z,10.40
2019-03-26T20:13:32.639Z,14.00
2019-03-26T20:18:46.389Z,12.83
2019-03-26T20:23:55.205Z,14.67
2019-03-26T20:29:04.837Z,15.73
2019-03-26T20:34:15.434Z,12.10
2019-03-26T20:39:23.841Z,13.97
2019-03-26T20:44:36.215Z,12.50
2019-03-26T20:49:52.865Z,13.67
2019-03-26T20:55:13.369Z,15.03
2019-03-26T21:00:40.617Z,9.37
2019-03-26T21:05:49.994Z,10.63
2019-03-26T21:11:04.318Z,10.03
2019-03-26T21:16:13.075Z,16.37
2019-03-26T21:21:22.724Z,12.17
2019-03-26T21:26:31.269Z,16.40
2019-03-26T21:31:43.507Z,14.27
2019-03-26T21:36:51.419Z,13.77
2019-03-26T21:41:59.724Z,15.63
2019-03-26T21:47:12.527Z,13.07
2019-03-26T21:52:20.437Z,13.07
2019-03-26T21:57:33.428Z,11.63
2019-03-26T22:02:41.940Z,12.83
2019-03-26T22:07:52.411Z,10.60
2019-03-26T22:13:00.740Z,14.53
2019-03-26T22:18:10.654Z,10.43
2019-03-26T22:23:18.607Z,17.20
2019-03-26T22:28:26.531Z,13.97
2019-03-26T22:33:34.675Z,13.50
2019-03-26T22:38:42.964Z,9.50
2019-03-26T22:43:51.107Z,11.60
2019-03-26T22:49:03.790Z,9.47
2019-03-26T22:54:14.566Z,10.60
2019-03-26T22:59:22.431Z,10.10
2019-03-26T23:04:30.467Z,9.87
2019-03-26T23:09:39.228Z,9.17
2019-03-26T23:14:48.049Z,8.30
2019-03-26T23:19:57.555Z,9.70
2019-03-26T23:25:05.990Z,9.83
2019-03-26T23:30:18.191Z,7.03
2019-03-26T23:35:29.204Z,4.73
2019-03-26T23:40:38.844Z,6.23
2019-03-26T23:51:07.437Z,4.10
2019-03-26T23:56:15.490Z,5.63
